sensor_id;sensor_type;location;lat;lon;timestamp;pressure;altitude;pressure_sealevel;temperature;humidity
36062;BME280;22123;52.412;20.970;2023-02-28T00:00:30;102172.63;;;-7.34;100.00
36062;BME280;22123;52.412;20.970;2023-02-28T00:02:56;102272.41;;;-6.77;100.00
36062;BME280;22123;52.412;20.970;2023-02-28T00:05:24;102165.78;;;-7.47;100.00
36062;BME280;22123;52.412;20.970;2023-02-28T00:07:50;102043.66;;;-8.35;100.00
36062;BME280;22123;52.412;20.970;2023-02-28T00:10:22;102039.34;;;-8.41;100.00
36062;BME280;22123;52.412;20.970;2023-02-28T00:12:49;102139.94;;;-7.84;100.00
36062;BME280;22123;52.412;20.970;2023-02-28T00:15:16;102055.88;;;-8.39;100.00
36062;BME280;22123;52.412;20.970;2023-02-28T00:17:42;102203.28;;;-7.48;100.00
36062;BME280;22123;52.412;20.970;2023-02-28T00:20:08;102018.66;;;-8.62;100.00
36062;BME280;22123;52.412;20.970;2023-02-28T00:22:36;102139.22;;;-8.00;100.00
36062;BME280;22123;52.412;20.970;2023-02-28T00:25:03;102238.97;;;-7.39;100.00
36062;BME280;22123;52.412;20.970;2023-02-28T00:27:30;102132.25;;;-8.04;100.00
36062;BME280;22123;52.412;20.970;2023-02-28T00:29:56;102079.41;;;-8.40;100.00
36062;BME280;22123;52.412;20.970;2023-02-28T00:32:22;102147.03;;;-7.98;100.00
36062;BME280;22123;52.412;20.970;2023-02-28T00:34:47;102226.03;;;-7.59;100.00
36062;BME280;22123;52.412;20.970;2023-02-28T00:37:13;102230.34;;;-7.54;100.00
36062;BME280;22123;52.412;20.970;2023-02-28T00:39:40;102211.31;;;-7.71;100.00
36062;BME280;22123;52.412;20.970;2023-02-28T00:42:07;102241.72;;;-7.58;100.00
36062;BME280;22123;52.412;20.970;2023-02-28T00:44:33;102282.50;;;-7.30;100.00
36062;BME280;22123;52.412;20.970;2023-02-28T00:47:00;102087.34;;;-8.51;100.00
36062;BME280;22123;52.412;20.970;2023-02-28T00:49:26;102171.53;;;-8.12;100.00
36062;BME280;22123;52.412;20.970;2023-02-28T00:51:55;102229.66;;;-7.73;100.00
36062;BME280;22123;52.412;20.970;2023-02-28T00:54:22;102291.34;;;-7.44;100.00
36062;BME280;22123;52.412;20.970;2023-02-28T00:56:49;101936.59;;;-9.54;100.00
36062;BME280;22123;52.412;20.970;2023-02-28T00:59:16;102258.34;;;-7.63;100.00
36062;BME280;22123;52.412;20.970;2023-02-28T01:01:44;102275.72;;;-7.58;100.00
36062;BME280;22123;52.412;20.970;2023-02-28T01:04:10;102068.47;;;-8.92;100.00
36062;BME280;22123;52.412;20.970;2023-02-28T01:06:36;102213.34;;;-8.12;100.00
36062;BME280;22123;52.412;20.970;2023-02-28T01:09:04;102239.41;;;-7.96;100.00
36062;BME280;22123;52.412;20.970;2023-02-28T01:11:31;101969.63;;;-9.52;100.00
36062;BME280;22123;52.412;20.970;2023-02-28T01:13:57;102287.13;;;-7.66;100.00
36062;BME280;22123;52.412;20.970;2023-02-28T01:16:23;102150.91;;;-8.52;100.00
36062;BME280;22123;52.412;20.970;2023-02-28T01:18:49;102290.66;;;-7.71;100.00
36062;BME280;22123;52.412;20.970;2023-02-28T01:21:17;102206.44;;;-8.19;100.00
36062;BME280;22123;52.412;20.970;2023-02-28T01:23:45;102287.16;;;-7.71;100.00
36062;BME280;22123;52.412;20.970;2023-02-28T01:26:17;102155.31;;;-8.57;100.00
36062;BME280;22123;52.412;20.970;2023-02-28T01:28:44;102209.16;;;-8.39;100.00
36062;BME280;22123;52.412;20.970;2023-02-28T01:31:12;102123.22;;;-8.81;100.00
36062;BME280;22123;52.412;20.970;2023-02-28T01:33:38;102234.28;;;-8.15;100.00
36062;BME280;22123;52.412;20.970;2023-02-28T01:36:10;102296.84;;;-7.84;100.00
36062;BME280;22123;52.412;20.970;2023-02-28T01:38:36;102276.91;;;-8.04;100.00
36062;BME280;22123;52.412;20.970;2023-02-28T01:41:03;102296.00;;;-7.89;100.00
36062;BME280;22123;52.412;20.970;2023-02-28T01:43:32;102266.47;;;-8.07;100.00
36062;BME280;22123;52.412;20.970;2023-02-28T01:45:59;102243.06;;;-8.25;100.00
36062;BME280;22123;52.412;20.970;2023-02-28T01:48:27;102242.19;;;-8.29;100.00
36062;BME280;22123;52.412;20.970;2023-02-28T01:50:57;102303.03;;;-7.97;100.00
36062;BME280;22123;52.412;20.970;2023-02-28T01:53:33;102260.47;;;-8.21;100.00
36062;BME280;22123;52.412;20.970;2023-02-28T01:56:00;102270.88;;;-8.16;100.00
36062;BME280;22123;52.412;20.970;2023-02-28T01:58:29;102197.13;;;-8.60;100.00
36062;BME280;22123;52.412;20.970;2023-02-28T02:00:55;102112.91;;;-9.09;100.00
36062;BME280;22123;52.412;20.970;2023-02-28T02:03:21;102164.97;;;-8.79;100.00
36062;BME280;22123;52.412;20.970;2023-02-28T02:05:47;102204.06;;;-8.61;100.00
36062;BME280;22123;52.412;20.970;2023-02-28T02:08:17;102292.59;;;-8.07;100.00
36062;BME280;22123;52.412;20.970;2023-02-28T02:10:48;102283.91;;;-8.09;100.00
36062;BME280;22123;52.412;20.970;2023-02-28T02:16:41;102261.38;;;-8.28;100.00
36062;BME280;22123;52.412;20.970;2023-02-28T02:22:12;102307.50;;;-8.18;100.00
36062;BME280;22123;52.412;20.970;2023-02-28T02:36:05;102245.91;;;-8.73;100.00
36062;BME280;22123;52.412;20.970;2023-02-28T02:43:40;102115.66;;;-9.56;100.00
36062;BME280;22123;52.412;20.970;2023-02-28T02:46:14;102207.69;;;-8.99;100.00
36062;BME280;22123;52.412;20.970;2023-02-28T02:48:48;102225.94;;;-8.91;100.00
36062;BME280;22123;52.412;20.970;2023-02-28T02:51:17;102230.25;;;-8.82;100.00
36062;BME280;22123;52.412;20.970;2023-02-28T02:53:59;102264.19;;;-8.75;100.00
36062;BME280;22123;52.412;20.970;2023-02-28T02:56:30;102132.16;;;-9.47;100.00
36062;BME280;22123;52.412;20.970;2023-02-28T02:59:01;102143.44;;;-9.48;100.00
36062;BME280;22123;52.412;20.970;2023-02-28T03:01:30;102314.56;;;-8.45;100.00
36062;BME280;22123;52.412;20.970;2023-02-28T03:03:59;102192.06;;;-9.10;100.00
36062;BME280;22123;52.412;20.970;2023-02-28T03:06:27;102207.72;;;-9.11;100.00
36062;BME280;22123;52.412;20.970;2023-02-28T03:08:53;102253.75;;;-8.79;100.00
36062;BME280;22123;52.412;20.970;2023-02-28T03:11:19;102242.47;;;-8.94;100.00
36062;BME280;22123;52.412;20.970;2023-02-28T03:19:42;102310.28;;;-8.57;100.00
36062;BME280;22123;52.412;20.970;2023-02-28T03:22:33;102309.41;;;-8.57;100.00
36062;BME280;22123;52.412;20.970;2023-02-28T03:30:18;102299.84;;;-8.64;100.00
36062;BME280;22123;52.412;20.970;2023-02-28T03:32:55;102220.78;;;-9.19;100.00
36062;BME280;22123;52.412;20.970;2023-02-28T03:35:29;102252.06;;;-9.10;100.00
36062;BME280;22123;52.412;20.970;2023-02-28T03:38:11;102267.72;;;-9.10;100.00
36062;BME280;22123;52.412;20.970;2023-02-28T03:40:39;102334.66;;;-8.67;100.00
36062;BME280;22123;52.412;20.970;2023-02-28T03:43:12;102113.09;;;-9.87;100.00
36062;BME280;22123;52.412;20.970;2023-02-28T03:45:39;102094.84;;;-9.97;100.00
36062;BME280;22123;52.412;20.970;2023-02-28T03:48:23;102065.34;;;-10.16;100.00
36062;BME280;22123;52.412;20.970;2023-02-28T03:50:54;102313.78;;;-8.65;100.00
36062;BME280;22123;52.412;20.970;2023-02-28T03:53:37;102311.16;;;-8.65;100.00
36062;BME280;22123;52.412;20.970;2023-02-28T03:56:16;102160.88;;;-9.65;100.00
36062;BME280;22123;52.412;20.970;2023-02-28T04:01:34;102180.00;;;-9.75;100.00
36062;BME280;22123;52.412;20.970;2023-02-28T04:04:02;102033.25;;;-10.52;100.00
36062;BME280;22123;52.412;20.970;2023-02-28T04:06:31;102203.44;;;-9.48;100.00
36062;BME280;22123;52.412;20.970;2023-02-28T04:08:57;102210.41;;;-9.50;100.00
36062;BME280;22123;52.412;20.970;2023-02-28T04:11:37;102322.50;;;-8.74;100.00
36062;BME280;22123;52.412;20.970;2023-02-28T04:14:04;102325.13;;;-8.76;100.00
36062;BME280;22123;52.412;20.970;2023-02-28T04:16:31;102319.91;;;-8.76;100.00
36062;BME280;22123;52.412;20.970;2023-02-28T04:18:58;102332.06;;;-8.76;100.00
36062;BME280;22123;52.412;20.970;2023-02-28T04:21:25;102198.25;;;-9.55;100.00
36062;BME280;22123;52.412;20.970;2023-02-28T04:23:51;102168.72;;;-9.76;100.00
36062;BME280;22123;52.412;20.970;2023-02-28T04:26:17;102206.94;;;-9.64;100.00
36062;BME280;22123;52.412;20.970;2023-02-28T04:28:42;102161.72;;;-9.88;100.00
36062;BME280;22123;52.412;20.970;2023-02-28T04:31:08;102266.03;;;-9.28;100.00
36062;BME280;22123;52.412;20.970;2023-02-28T04:33:35;102320.78;;;-8.86;100.00
36062;BME280;22123;52.412;20.970;2023-02-28T04:36:04;102190.44;;;-9.60;100.00
36062;BME280;22123;52.412;20.970;2023-02-28T04:38:33;102326.00;;;-8.80;100.00
36062;BME280;22123;52.412;20.970;2023-02-28T04:41:00;102322.53;;;-8.80;100.00
36062;BME280;22123;52.412;20.970;2023-02-28T04:43:27;102320.75;;;-8.80;100.00
36062;BME280;22123;52.412;20.970;2023-02-28T04:45:54;102150.44;;;-9.88;100.00
36062;BME280;22123;52.412;20.970;2023-02-28T04:48:20;102100.06;;;-10.18;100.00
36062;BME280;22123;52.412;20.970;2023-02-28T04:50:46;102277.31;;;-9.26;100.00
36062;BME280;22123;52.412;20.970;2023-02-28T04:53:12;102120.06;;;-10.23;100.00
36062;BME280;22123;52.412;20.970;2023-02-28T04:55:38;102105.28;;;-10.31;100.00
36062;BME280;22123;52.412;20.970;2023-02-28T04:58:04;101936.00;;;-11.34;100.00
36062;BME280;22123;52.412;20.970;2023-02-28T05:00:29;102310.38;;;-9.26;100.00
36062;BME280;22123;52.412;20.970;2023-02-28T05:02:55;102070.56;;;-10.60;100.00
36062;BME280;22123;52.412;20.970;2023-02-28T05:05:21;102242.56;;;-9.60;100.00
36062;BME280;22123;52.412;20.970;2023-02-28T05:07:47;102250.38;;;-9.62;100.00
36062;BME280;22123;52.412;20.970;2023-02-28T05:10:13;102352.97;;;-9.02;100.00
36062;BME280;22123;52.412;20.970;2023-02-28T05:12:39;102350.38;;;-9.07;100.00
36062;BME280;22123;52.412;20.970;2023-02-28T05:15:05;102155.66;;;-10.35;100.00
36062;BME280;22123;52.412;20.970;2023-02-28T05:17:31;102256.44;;;-9.75;100.00
36062;BME280;22123;52.412;20.970;2023-02-28T05:19:57;102239.06;;;-9.88;100.00
36062;BME280;22123;52.412;20.970;2023-02-28T05:22:23;102272.97;;;-9.70;100.00
36062;BME280;22123;52.412;20.970;2023-02-28T05:24:48;102175.59;;;-10.24;100.00
36062;BME280;22123;52.412;20.970;2023-02-28T05:27:14;102346.03;;;-9.25;100.00
36062;BME280;22123;52.412;20.970;2023-02-28T05:29:40;102244.28;;;-9.84;100.00
36062;BME280;22123;52.412;20.970;2023-02-28T05:32:06;102130.44;;;-10.56;100.00
36062;BME280;22123;52.412;20.970;2023-02-28T05:34:32;102290.38;;;-9.64;100.00
36062;BME280;22123;52.412;20.970;2023-02-28T05:36:58;102165.19;;;-10.26;100.00
36062;BME280;22123;52.412;20.970;2023-02-28T05:39:24;102339.94;;;-9.30;100.00
36062;BME280;22123;52.412;20.970;2023-02-28T05:41:50;102168.66;;;-10.30;100.00
36062;BME280;22123;52.412;20.970;2023-02-28T05:44:15;102283.41;;;-9.62;100.00
36062;BME280;22123;52.412;20.970;2023-02-28T05:46:48;102234.75;;;-9.82;100.00
36062;BME280;22123;52.412;20.970;2023-02-28T05:49:14;102392.13;;;-8.87;100.00
36062;BME280;22123;52.412;20.970;2023-02-28T05:51:40;102157.38;;;-10.24;100.00
36062;BME280;22123;52.412;20.970;2023-02-28T05:54:06;102315.59;;;-9.24;100.00
36062;BME280;22123;52.412;20.970;2023-02-28T05:56:32;102319.94;;;-9.22;100.00
36062;BME280;22123;52.412;20.970;2023-02-28T05:58:58;102312.97;;;-9.17;100.00
36062;BME280;22123;52.412;20.970;2023-02-28T06:01:32;102397.34;;;-8.61;100.00
36062;BME280;22123;52.412;20.970;2023-02-28T06:03:59;102406.06;;;-8.59;100.00
36062;BME280;22123;52.412;20.970;2023-02-28T06:06:25;102411.28;;;-8.55;100.00
36062;BME280;22123;52.412;20.970;2023-02-28T06:08:51;102358.19;;;-8.81;100.00
36062;BME280;22123;52.412;20.970;2023-02-28T06:11:17;102253.00;;;-9.34;100.00
36062;BME280;22123;52.412;20.970;2023-02-28T06:13:43;102315.56;;;-8.90;100.00
36062;BME280;22123;52.412;20.970;2023-02-28T06:16:11;102406.81;;;-8.18;100.00
36062;BME280;22123;52.412;20.970;2023-02-28T06:18:37;102403.28;;;-8.06;100.00
36062;BME280;22123;52.412;20.970;2023-02-28T06:21:03;102410.19;;;-7.94;100.00
36062;BME280;22123;52.412;20.970;2023-02-28T06:23:30;102348.41;;;-8.20;100.00
36062;BME280;22123;52.412;20.970;2023-02-28T06:25:56;102407.47;;;-7.70;100.00
36062;BME280;22123;52.412;20.970;2023-02-28T06:28:22;102334.44;;;-8.05;100.00
36062;BME280;22123;52.412;20.970;2023-02-28T06:30:47;102377.75;;;-7.55;100.00
36062;BME280;22123;52.412;20.970;2023-02-28T06:33:13;102239.59;;;-8.32;100.00
36062;BME280;22123;52.412;20.970;2023-02-28T06:35:39;102138.88;;;-8.81;100.00
36062;BME280;22123;52.412;20.970;2023-02-28T06:38:05;102391.41;;;-7.14;100.00
36062;BME280;22123;52.412;20.970;2023-02-28T06:40:31;102251.53;;;-7.86;100.00
36062;BME280;22123;52.412;20.970;2023-02-28T06:42:57;102161.16;;;-8.19;100.00
36062;BME280;22123;52.412;20.970;2023-02-28T06:45:23;102166.22;;;-8.02;100.00
36062;BME280;22123;52.412;20.970;2023-02-28T06:47:48;102274.63;;;-7.29;100.00
36062;BME280;22123;52.412;20.970;2023-02-28T06:50:14;102376.06;;;-6.50;100.00
36062;BME280;22123;52.412;20.970;2023-02-28T06:52:40;102250.09;;;-7.19;100.00
36062;BME280;22123;52.412;20.970;2023-02-28T06:55:07;102179.72;;;-7.48;100.00
36062;BME280;22123;52.412;20.970;2023-02-28T06:57:34;102412.41;;;-6.19;100.00
36062;BME280;22123;52.412;20.970;2023-02-28T07:00:07;102377.34;;;-6.09;100.00
36062;BME280;22123;52.412;20.970;2023-02-28T07:02:34;102356.25;;;-6.01;100.00
36062;BME280;22123;52.412;20.970;2023-02-28T07:05:00;102160.91;;;-7.00;100.00
36062;BME280;22123;52.412;20.970;2023-02-28T07:07:26;101954.63;;;-8.12;100.00
36062;BME280;22123;52.412;20.970;2023-02-28T07:09:54;102354.91;;;-5.69;100.00
36062;BME280;22123;52.412;20.970;2023-02-28T07:12:20;102252.47;;;-6.19;100.00
36062;BME280;22123;52.412;20.970;2023-02-28T07:14:46;102263.75;;;-6.11;100.00
36062;BME280;22123;52.412;20.970;2023-02-28T07:17:12;102301.69;;;-5.76;100.00
36062;BME280;22123;52.412;20.970;2023-02-28T07:19:38;102263.66;;;-6.05;100.00
36062;BME280;22123;52.412;20.970;2023-02-28T07:22:05;102326.63;;;-5.47;100.00
36062;BME280;22123;52.412;20.970;2023-02-28T07:24:31;102301.38;;;-5.56;100.00
36062;BME280;22123;52.412;20.970;2023-02-28T07:26:57;102314.25;;;-5.41;100.00
36062;BME280;22123;52.412;20.970;2023-02-28T07:29:23;102293.25;;;-5.41;100.00
36062;BME280;22123;52.412;20.970;2023-02-28T07:31:48;102231.56;;;-5.68;100.00
36062;BME280;22123;52.412;20.970;2023-02-28T07:34:14;102325.03;;;-5.03;100.00
36062;BME280;22123;52.412;20.970;2023-02-28T07:36:40;102351.59;;;-4.70;100.00
36062;BME280;22123;52.412;20.970;2023-02-28T07:39:06;102348.78;;;-4.61;100.00
36062;BME280;22123;52.412;20.970;2023-02-28T07:41:32;102156.31;;;-5.66;100.00
36062;BME280;22123;52.412;20.970;2023-02-28T07:43:58;102252.22;;;-4.96;100.00
36062;BME280;22123;52.412;20.970;2023-02-28T07:46:24;102252.06;;;-4.87;100.00
36062;BME280;22123;52.412;20.970;2023-02-28T07:48:49;102290.69;;;-4.45;100.00
36062;BME280;22123;52.412;20.970;2023-02-28T07:51:15;101990.91;;;-6.05;100.00
36062;BME280;22123;52.412;20.970;2023-02-28T07:53:41;102184.19;;;-4.65;100.00
36062;BME280;22123;52.412;20.970;2023-02-28T07:56:07;102259.72;;;-3.92;100.00
36062;BME280;22123;52.412;20.970;2023-02-28T07:58:33;102322.22;;;-3.25;100.00
36062;BME280;22123;52.412;20.970;2023-02-28T08:01:07;102287.81;;;-3.19;100.00
36062;BME280;22123;52.412;20.970;2023-02-28T08:03:33;102266.41;;;-3.05;100.00
36062;BME280;22123;52.412;20.970;2023-02-28T08:05:59;102286.78;;;-2.78;100.00
36062;BME280;22123;52.412;20.970;2023-02-28T08:08:25;102253.44;;;-2.81;100.00
36062;BME280;22123;52.412;20.970;2023-02-28T08:10:51;102254.66;;;-2.93;100.00
36062;BME280;22123;52.412;20.970;2023-02-28T08:13:17;102353.72;;;-2.18;100.00
36062;BME280;22123;52.412;20.970;2023-02-28T08:15:43;102312.09;;;-2.40;100.00
36062;BME280;22123;52.412;20.970;2023-02-28T08:18:09;102265.00;;;-2.54;100.00
36062;BME280;22123;52.412;20.970;2023-02-28T08:20:35;102302.16;;;-2.30;100.00
36062;BME280;22123;52.412;20.970;2023-02-28T08:23:01;102361.59;;;-1.87;100.00
36062;BME280;22123;52.412;20.970;2023-02-28T08:25:33;102288.66;;;-2.19;100.00
36062;BME280;22123;52.412;20.970;2023-02-28T08:27:59;102289.25;;;-2.10;100.00
36062;BME280;22123;52.412;20.970;2023-02-28T08:30:24;102289.19;;;-2.08;100.00
36062;BME280;22123;52.412;20.970;2023-02-28T08:32:50;102173.63;;;-2.55;100.00
36062;BME280;22123;52.412;20.970;2023-02-28T08:35:16;102287.75;;;-1.90;100.00
36062;BME280;22123;52.412;20.970;2023-02-28T08:37:42;102183.75;;;-2.41;100.00
36062;BME280;22123;52.412;20.970;2023-02-28T08:40:08;102336.50;;;-1.44;100.00
36062;BME280;22123;52.412;20.970;2023-02-28T08:42:35;102287.97;;;-1.68;100.00
36062;BME280;22123;52.412;20.970;2023-02-28T08:45:01;102075.09;;;-2.81;100.00
36062;BME280;22123;52.412;20.970;2023-02-28T08:47:27;102283.66;;;-1.44;100.00
36062;BME280;22123;52.412;20.970;2023-02-28T08:49:53;102278.16;;;-1.36;100.00
36062;BME280;22123;52.412;20.970;2023-02-28T08:52:18;102310.34;;;-1.23;100.00
36062;BME280;22123;52.412;20.970;2023-02-28T08:54:44;102240.41;;;-1.66;100.00
36062;BME280;22123;52.412;20.970;2023-02-28T08:57:10;102268.13;;;-1.53;100.00
36062;BME280;22123;52.412;20.970;2023-02-28T08:59:36;102254.59;;;-1.70;100.00
36062;BME280;22123;52.412;20.970;2023-02-28T09:02:02;102319.66;;;-1.40;100.00
36062;BME280;22123;52.412;20.970;2023-02-28T09:04:28;102286.19;;;-1.67;100.00
36062;BME280;22123;52.412;20.970;2023-02-28T09:06:54;102364.66;;;-1.14;100.00
36062;BME280;22123;52.412;20.970;2023-02-28T09:09:20;102264.22;;;-1.68;100.00
36062;BME280;22123;52.412;20.970;2023-02-28T09:11:46;102208.00;;;-2.00;100.00
36062;BME280;22123;52.412;20.970;2023-02-28T09:14:11;102365.09;;;-1.00;100.00
36062;BME280;22123;52.412;20.970;2023-02-28T09:16:37;102167.41;;;-2.24;100.00
36062;BME280;22123;52.412;20.970;2023-02-28T09:19:03;102307.41;;;-1.42;100.00
36062;BME280;22123;52.412;20.970;2023-02-28T09:21:29;102236.88;;;-1.67;100.00
36062;BME280;22123;52.412;20.970;2023-02-28T09:23:55;102262.16;;;-1.31;100.00
36062;BME280;22123;52.412;20.970;2023-02-28T09:26:26;102362.00;;;-0.61;100.00
36062;BME280;22123;52.412;20.970;2023-02-28T09:28:54;102294.00;;;-1.09;100.00
36062;BME280;22123;52.412;20.970;2023-02-28T09:31:22;102187.53;;;-1.65;100.00
36062;BME280;22123;52.412;20.970;2023-02-28T09:33:53;102360.91;;;-0.55;100.00
36062;BME280;22123;52.412;20.970;2023-02-28T09:36:20;102227.56;;;-1.25;100.00
36062;BME280;22123;52.412;20.970;2023-02-28T09:38:46;102259.84;;;-0.90;100.00
36062;BME280;22123;52.412;20.970;2023-02-28T09:41:42;102353.88;;;-0.31;100.00
36062;BME280;22123;52.412;20.970;2023-02-28T09:44:15;102289.44;;;-0.79;100.00
36062;BME280;22123;52.412;20.970;2023-02-28T09:46:47;102322.09;;;-0.55;100.00
36062;BME280;22123;52.412;20.970;2023-02-28T09:49:16;102362.47;;;-0.24;100.00
36062;BME280;22123;52.412;20.970;2023-02-28T09:52:02;102258.00;;;-0.63;100.00
36062;BME280;22123;52.412;20.970;2023-02-28T09:54:31;102280.13;;;-0.40;100.00
36062;BME280;22123;52.412;20.970;2023-02-28T09:57:08;102360.81;;;0.21;100.00
36062;BME280;22123;52.412;20.970;2023-02-28T10:05:12;102276.25;;;-0.08;100.00
36062;BME280;22123;52.412;20.970;2023-02-28T10:10:47;102372.56;;;0.59;100.00
36062;BME280;22123;52.412;20.970;2023-02-28T10:15:56;102327.72;;;0.75;100.00
36062;BME280;22123;52.412;20.970;2023-02-28T10:18:31;102300.53;;;0.92;100.00
36062;BME280;22123;52.412;20.970;2023-02-28T10:21:02;102340.22;;;1.57;100.00
36062;BME280;22123;52.412;20.970;2023-02-28T10:23:32;102229.69;;;1.54;100.00
36062;BME280;22123;52.412;20.970;2023-02-28T10:26:03;102230.84;;;2.42;100.00
36062;BME280;22123;52.412;20.970;2023-02-28T10:28:34;102271.50;;;4.31;100.00
36062;BME280;22123;52.412;20.970;2023-02-28T10:30:59;102216.59;;;5.47;100.00
36062;BME280;22123;52.412;20.970;2023-02-28T10:33:31;102271.47;;;7.56;100.00
36062;BME280;22123;52.412;20.970;2023-02-28T10:35:58;102322.28;;;9.42;100.00
36062;BME280;22123;52.412;20.970;2023-02-28T10:38:28;102178.53;;;9.68;100.00
36062;BME280;22123;52.412;20.970;2023-02-28T10:41:05;102181.31;;;10.33;100.00
36062;BME280;22123;52.412;20.970;2023-02-28T10:43:31;102191.50;;;10.62;100.00
36062;BME280;22123;52.412;20.970;2023-02-28T10:48:38;102288.28;;;12.41;100.00
36062;BME280;22123;52.412;20.970;2023-02-28T10:51:07;102286.56;;;12.49;64.76
36062;BME280;22123;52.412;20.970;2023-02-28T10:53:35;102282.19;;;12.78;61.68
36062;BME280;22123;52.412;20.970;2023-02-28T11:01:48;102185.66;;;12.21;60.22
36062;BME280;22123;52.412;20.970;2023-02-28T11:04:19;102231.63;;;12.00;53.50
36062;BME280;22123;52.412;20.970;2023-02-28T11:06:46;102222.28;;;11.63;55.92
36062;BME280;22123;52.412;20.970;2023-02-28T11:09:27;102179.25;;;12.32;53.88
36062;BME280;22123;52.412;20.970;2023-02-28T11:11:54;102168.50;;;11.72;52.02
36062;BME280;22123;52.412;20.970;2023-02-28T11:14:23;102177.84;;;11.68;53.07
36062;BME280;22123;52.412;20.970;2023-02-28T11:16:50;102243.03;;;12.13;50.26
36062;BME280;22123;52.412;20.970;2023-02-28T11:19:20;102274.22;;;12.66;51.17
36062;BME280;22123;52.412;20.970;2023-02-28T11:22:02;102193.28;;;12.16;52.69
36062;BME280;22123;52.412;20.970;2023-02-28T11:24:37;102260.00;;;12.74;49.64
36062;BME280;22123;52.412;20.970;2023-02-28T11:30:40;102259.91;;;11.13;50.11
36062;BME280;22123;52.412;20.970;2023-02-28T11:33:22;102253.31;;;11.06;55.64
36062;BME280;22123;52.412;20.970;2023-02-28T11:35:49;102244.66;;;11.54;51.98
36062;BME280;22123;52.412;20.970;2023-02-28T11:38:16;102200.38;;;11.57;52.88
36062;BME280;22123;52.412;20.970;2023-02-28T11:46:23;102251.53;;;11.16;46.56
36062;BME280;22123;52.412;20.970;2023-02-28T11:52:21;102164.16;;;10.67;50.17
36062;BME280;22123;52.412;20.970;2023-02-28T11:58:14;102248.22;;;11.03;50.65
36062;BME280;22123;52.412;20.970;2023-02-28T12:03:58;101931.31;;;8.34;49.80
36062;BME280;22123;52.412;20.970;2023-02-28T12:06:36;102160.97;;;9.30;51.07
36062;BME280;22123;52.412;20.970;2023-02-28T12:11:40;102234.25;;;9.10;52.65
36062;BME280;22123;52.412;20.970;2023-02-28T12:27:42;102214.22;;;8.67;53.94
36062;BME280;22123;52.412;20.970;2023-02-28T12:30:34;102177.13;;;7.88;53.87
36062;BME280;22123;52.412;20.970;2023-02-28T12:33:16;102107.72;;;7.09;60.88
36062;BME280;22123;52.412;20.970;2023-02-28T12:35:46;102210.56;;;7.58;54.87
36062;BME280;22123;52.412;20.970;2023-02-28T12:38:21;102160.34;;;7.23;57.70
36062;BME280;22123;52.412;20.970;2023-02-28T12:40:55;102076.94;;;6.65;60.70
36062;BME280;22123;52.412;20.970;2023-02-28T12:43:27;102114.72;;;6.86;64.02
36062;BME280;22123;52.412;20.970;2023-02-28T12:45:59;102059.81;;;6.42;65.62
36062;BME280;22123;52.412;20.970;2023-02-28T12:48:38;102199.13;;;7.30;57.84
36062;BME280;22123;52.412;20.970;2023-02-28T12:51:07;102098.13;;;6.55;60.49
36062;BME280;22123;52.412;20.970;2023-02-28T12:58:56;102128.28;;;6.32;60.41
36062;BME280;22123;52.412;20.970;2023-02-28T13:09:37;102056.88;;;5.52;62.15
36062;BME280;22123;52.412;20.970;2023-02-28T13:12:15;102191.91;;;6.26;64.29
36062;BME280;22123;52.412;20.970;2023-02-28T13:14:42;102182.94;;;6.28;69.74
36062;BME280;22123;52.412;20.970;2023-02-28T13:19:37;102134.16;;;6.37;63.16
36062;BME280;22123;52.412;20.970;2023-02-28T13:22:04;102180.06;;;6.84;59.87
36062;BME280;22123;52.412;20.970;2023-02-28T13:24:59;102123.59;;;6.61;58.57
36062;BME280;22123;52.412;20.970;2023-02-28T13:27:34;102150.50;;;6.85;57.00
36062;BME280;22123;52.412;20.970;2023-02-28T13:30:00;102122.31;;;6.54;61.77
36062;BME280;22123;52.412;20.970;2023-02-28T13:32:31;102169.97;;;6.74;64.64
36062;BME280;22123;52.412;20.970;2023-02-28T13:39:56;102076.94;;;5.99;66.33
36062;BME280;22123;52.412;20.970;2023-02-28T13:42:47;102088.84;;;6.08;65.27
36062;BME280;22123;52.412;20.970;2023-02-28T13:48:04;102141.56;;;6.06;67.75
36062;BME280;22123;52.412;20.970;2023-02-28T13:50:40;102024.19;;;5.34;63.88
36062;BME280;22123;52.412;20.970;2023-02-28T14:06:30;102115.41;;;5.97;63.83
36062;BME280;22123;52.412;20.970;2023-02-28T14:09:04;102118.91;;;6.12;62.86
36062;BME280;22123;52.412;20.970;2023-02-28T14:11:34;102130.09;;;6.04;63.84
36062;BME280;22123;52.412;20.970;2023-02-28T14:14:01;102079.44;;;5.75;65.42
36062;BME280;22123;52.412;20.970;2023-02-28T14:19:09;102126.78;;;6.00;69.90
36062;BME280;22123;52.412;20.970;2023-02-28T14:21:39;102118.03;;;6.11;73.52
36062;BME280;22123;52.412;20.970;2023-02-28T14:32:40;102103.00;;;5.96;67.83
36062;BME280;22123;52.412;20.970;2023-02-28T14:35:50;102104.44;;;5.74;72.32
36062;BME280;22123;52.412;20.970;2023-02-28T14:38:18;102109.13;;;5.56;77.43
36062;BME280;22123;52.412;20.970;2023-02-28T14:40:46;101936.03;;;4.52;76.52
36062;BME280;22123;52.412;20.970;2023-02-28T14:43:24;102009.53;;;4.70;75.88
36062;BME280;22123;52.412;20.970;2023-02-28T14:45:57;101982.22;;;4.52;74.15
36062;BME280;22123;52.412;20.970;2023-02-28T14:48:24;102035.47;;;4.68;71.13
36062;BME280;22123;52.412;20.970;2023-02-28T14:50:53;101976.22;;;4.20;69.82
36062;BME280;22123;52.412;20.970;2023-02-28T14:53:21;102097.75;;;4.67;70.07
36062;BME280;22123;52.412;20.970;2023-02-28T14:55:49;102039.72;;;3.97;69.92
36062;BME280;22123;52.412;20.970;2023-02-28T14:58:25;102001.53;;;3.52;71.48
36062;BME280;22123;52.412;20.970;2023-02-28T15:00:52;102012.69;;;3.27;72.72